sensor_id;sensor_type;location;lat;lon;timestamp;temperature;humidity
12911;DHT22;6523;49.758;6.120;2023-07-22T00:00:15;12.40;99.90
12911;DHT22;6523;49.758;6.120;2023-07-22T00:02:41;12.30;99.90
12911;DHT22;6523;49.758;6.120;2023-07-22T00:05:08;12.40;99.90
12911;DHT22;6523;49.758;6.120;2023-07-22T00:07:33;12.30;99.90
12911;DHT22;6523;49.758;6.120;2023-07-22T00:09:59;12.20;99.90
12911;DHT22;6523;49.758;6.120;2023-07-22T00:12:25;12.10;99.90
12911;DHT22;6523;49.758;6.120;2023-07-22T00:14:51;12.00;99.90
12911;DHT22;6523;49.758;6.120;2023-07-22T00:17:18;11.90;99.90
12911;DHT22;6523;49.758;6.120;2023-07-22T00:19:44;11.90;99.90
12911;DHT22;6523;49.758;6.120;2023-07-22T00:22:10;11.80;99.90
12911;DHT22;6523;49.758;6.120;2023-07-22T00:24:35;11.80;99.90
12911;DHT22;6523;49.758;6.120;2023-07-22T00:27:01;12.00;99.90
12911;DHT22;6523;49.758;6.120;2023-07-22T00:29:26;11.90;99.90
12911;DHT22;6523;49.758;6.120;2023-07-22T00:31:52;11.70;99.90
12911;DHT22;6523;49.758;6.120;2023-07-22T00:34:17;11.60;99.90
12911;DHT22;6523;49.758;6.120;2023-07-22T00:36:43;11.50;99.90
12911;DHT22;6523;49.758;6.120;2023-07-22T00:39:09;11.80;99.90
12911;DHT22;6523;49.758;6.120;2023-07-22T00:41:36;11.70;99.90
12911;DHT22;6523;49.758;6.120;2023-07-22T00:44:02;11.50;99.90
12911;DHT22;6523;49.758;6.120;2023-07-22T00:46:28;11.50;99.90
12911;DHT22;6523;49.758;6.120;2023-07-22T00:48:53;11.60;99.90
12911;DHT22;6523;49.758;6.120;2023-07-22T00:51:19;11.70;99.90
12911;DHT22;6523;49.758;6.120;2023-07-22T00:53:46;11.60;99.90
12911;DHT22;6523;49.758;6.120;2023-07-22T00:56:11;11.40;99.90
12911;DHT22;6523;49.758;6.120;2023-07-22T00:58:37;11.40;99.90
12911;DHT22;6523;49.758;6.120;2023-07-22T01:01:03;11.30;99.90
12911;DHT22;6523;49.758;6.120;2023-07-22T01:03:28;11.30;99.90
12911;DHT22;6523;49.758;6.120;2023-07-22T01:05:54;11.30;99.90
12911;DHT22;6523;49.758;6.120;2023-07-22T01:08:20;11.10;99.90
12911;DHT22;6523;49.758;6.120;2023-07-22T01:10:46;11.00;99.90
12911;DHT22;6523;49.758;6.120;2023-07-22T01:13:11;11.00;99.90
12911;DHT22;6523;49.758;6.120;2023-07-22T01:15:37;11.00;99.90
12911;DHT22;6523;49.758;6.120;2023-07-22T01:18:03;10.90;99.90
12911;DHT22;6523;49.758;6.120;2023-07-22T01:20:30;10.90;99.90
12911;DHT22;6523;49.758;6.120;2023-07-22T01:22:56;11.10;99.90
12911;DHT22;6523;49.758;6.120;2023-07-22T01:25:22;11.00;99.90
12911;DHT22;6523;49.758;6.120;2023-07-22T01:27:49;11.00;99.90
12911;DHT22;6523;49.758;6.120;2023-07-22T01:30:15;10.90;99.90
12911;DHT22;6523;49.758;6.120;2023-07-22T01:32:41;11.00;99.90
12911;DHT22;6523;49.758;6.120;2023-07-22T01:35:07;11.00;99.90
12911;DHT22;6523;49.758;6.120;2023-07-22T01:37:34;10.80;99.90
12911;DHT22;6523;49.758;6.120;2023-07-22T01:40:00;10.60;99.90
12911;DHT22;6523;49.758;6.120;2023-07-22T01:42:25;10.70;99.90
12911;DHT22;6523;49.758;6.120;2023-07-22T01:44:52;10.70;99.90
12911;DHT22;6523;49.758;6.120;2023-07-22T01:47:17;10.60;99.90
12911;DHT22;6523;49.758;6.120;2023-07-22T01:49:44;10.50;99.90
12911;DHT22;6523;49.758;6.120;2023-07-22T01:52:10;10.40;99.90
12911;DHT22;6523;49.758;6.120;2023-07-22T01:54:36;10.30;99.90
12911;DHT22;6523;49.758;6.120;2023-07-22T01:57:01;10.40;99.90
12911;DHT22;6523;49.758;6.120;2023-07-22T01:59:27;10.50;99.90
12911;DHT22;6523;49.758;6.120;2023-07-22T02:01:52;10.30;99.90
12911;DHT22;6523;49.758;6.120;2023-07-22T02:04:18;10.10;99.90
12911;DHT22;6523;49.758;6.120;2023-07-22T02:06:43;10.10;99.90
12911;DHT22;6523;49.758;6.120;2023-07-22T02:09:10;10.20;99.90
12911;DHT22;6523;49.758;6.120;2023-07-22T02:11:39;10.20;99.90
12911;DHT22;6523;49.758;6.120;2023-07-22T02:14:04;10.20;99.90
12911;DHT22;6523;49.758;6.120;2023-07-22T02:16:33;10.10;99.90
12911;DHT22;6523;49.758;6.120;2023-07-22T02:18:59;10.10;99.90
12911;DHT22;6523;49.758;6.120;2023-07-22T02:21:24;10.10;99.90
12911;DHT22;6523;49.758;6.120;2023-07-22T02:23:50;10.10;99.90
12911;DHT22;6523;49.758;6.120;2023-07-22T02:26:15;10.10;99.90
12911;DHT22;6523;49.758;6.120;2023-07-22T02:28:41;10.00;99.90
12911;DHT22;6523;49.758;6.120;2023-07-22T02:31:06;10.10;99.90
12911;DHT22;6523;49.758;6.120;2023-07-22T02:33:32;10.00;99.90
12911;DHT22;6523;49.758;6.120;2023-07-22T02:35:58;10.10;99.90
12911;DHT22;6523;49.758;6.120;2023-07-22T02:38:23;10.10;99.90
12911;DHT22;6523;49.758;6.120;2023-07-22T02:40:49;10.00;99.90
12911;DHT22;6523;49.758;6.120;2023-07-22T02:43:14;10.00;99.90
12911;DHT22;6523;49.758;6.120;2023-07-22T02:45:40;9.90;99.90
12911;DHT22;6523;49.758;6.120;2023-07-22T02:48:06;9.80;99.90
12911;DHT22;6523;49.758;6.120;2023-07-22T02:50:32;9.80;99.90
12911;DHT22;6523;49.758;6.120;2023-07-22T02:52:57;9.70;99.90
12911;DHT22;6523;49.758;6.120;2023-07-22T02:55:23;9.70;99.90
12911;DHT22;6523;49.758;6.120;2023-07-22T02:57:49;9.80;99.90
12911;DHT22;6523;49.758;6.120;2023-07-22T03:00:16;10.10;99.90
12911;DHT22;6523;49.758;6.120;2023-07-22T03:02:52;10.00;99.90
12911;DHT22;6523;49.758;6.120;2023-07-22T03:05:18;9.80;99.90
12911;DHT22;6523;49.758;6.120;2023-07-22T03:07:44;9.70;99.90
12911;DHT22;6523;49.758;6.120;2023-07-22T03:10:10;9.60;99.90
12911;DHT22;6523;49.758;6.120;2023-07-22T03:12:36;9.50;99.90
12911;DHT22;6523;49.758;6.120;2023-07-22T03:15:03;9.60;99.90
12911;DHT22;6523;49.758;6.120;2023-07-22T03:17:29;9.70;99.90
12911;DHT22;6523;49.758;6.120;2023-07-22T03:19:55;9.60;99.90
12911;DHT22;6523;49.758;6.120;2023-07-22T03:22:21;9.50;99.90
12911;DHT22;6523;49.758;6.120;2023-07-22T03:24:46;9.50;99.90
12911;DHT22;6523;49.758;6.120;2023-07-22T03:27:13;9.40;99.90
12911;DHT22;6523;49.758;6.120;2023-07-22T03:29:40;9.50;99.90
12911;DHT22;6523;49.758;6.120;2023-07-22T03:32:06;9.60;99.90
12911;DHT22;6523;49.758;6.120;2023-07-22T03:34:32;9.40;99.90
12911;DHT22;6523;49.758;6.120;2023-07-22T03:36:58;9.40;99.90
12911;DHT22;6523;49.758;6.120;2023-07-22T03:39:24;9.30;99.90
12911;DHT22;6523;49.758;6.120;2023-07-22T03:41:49;9.30;99.90
12911;DHT22;6523;49.758;6.120;2023-07-22T03:44:15;9.20;99.90
12911;DHT22;6523;49.758;6.120;2023-07-22T03:46:40;9.20;99.90
12911;DHT22;6523;49.758;6.120;2023-07-22T03:49:06;9.30;99.90
12911;DHT22;6523;49.758;6.120;2023-07-22T03:51:33;9.40;99.90
12911;DHT22;6523;49.758;6.120;2023-07-22T03:53:59;9.40;99.90
12911;DHT22;6523;49.758;6.120;2023-07-22T03:56:25;9.40;99.90
12911;DHT22;6523;49.758;6.120;2023-07-22T03:58:51;9.30;99.90
12911;DHT22;6523;49.758;6.120;2023-07-22T04:01:17;9.20;99.90
12911;DHT22;6523;49.758;6.120;2023-07-22T04:03:42;9.20;99.90
12911;DHT22;6523;49.758;6.120;2023-07-22T04:06:08;9.20;99.90
12911;DHT22;6523;49.758;6.120;2023-07-22T04:08:33;9.30;99.90
12911;DHT22;6523;49.758;6.120;2023-07-22T04:10:59;9.30;99.90
12911;DHT22;6523;49.758;6.120;2023-07-22T04:13:25;9.20;99.90
12911;DHT22;6523;49.758;6.120;2023-07-22T04:15:51;9.20;99.90
12911;DHT22;6523;49.758;6.120;2023-07-22T04:18:17;9.20;99.90
12911;DHT22;6523;49.758;6.120;2023-07-22T04:20:45;9.30;99.90
12911;DHT22;6523;49.758;6.120;2023-07-22T04:23:10;9.20;99.90
12911;DHT22;6523;49.758;6.120;2023-07-22T04:25:43;9.20;99.90
12911;DHT22;6523;49.758;6.120;2023-07-22T04:28:09;9.30;99.90
12911;DHT22;6523;49.758;6.120;2023-07-22T04:30:35;9.40;99.90
12911;DHT22;6523;49.758;6.120;2023-07-22T04:33:02;9.50;99.90
12911;DHT22;6523;49.758;6.120;2023-07-22T04:35:31;9.40;99.90
12911;DHT22;6523;49.758;6.120;2023-07-22T04:37:57;9.50;99.90
12911;DHT22;6523;49.758;6.120;2023-07-22T04:40:23;9.50;99.90
12911;DHT22;6523;49.758;6.120;2023-07-22T04:42:50;9.60;99.90
12911;DHT22;6523;49.758;6.120;2023-07-22T04:45:16;9.70;99.90
12911;DHT22;6523;49.758;6.120;2023-07-22T04:47:43;9.90;99.90
12911;DHT22;6523;49.758;6.120;2023-07-22T04:50:12;10.00;99.90
12911;DHT22;6523;49.758;6.120;2023-07-22T04:52:38;10.10;99.90
12911;DHT22;6523;49.758;6.120;2023-07-22T04:55:04;10.10;99.90
12911;DHT22;6523;49.758;6.120;2023-07-22T04:57:35;9.90;99.90
12911;DHT22;6523;49.758;6.120;2023-07-22T05:00:01;10.10;99.90
12911;DHT22;6523;49.758;6.120;2023-07-22T05:02:29;10.40;99.90
12911;DHT22;6523;49.758;6.120;2023-07-22T05:04:56;10.40;99.90
12911;DHT22;6523;49.758;6.120;2023-07-22T05:07:21;10.40;99.90
12911;DHT22;6523;49.758;6.120;2023-07-22T05:09:48;10.30;99.90
12911;DHT22;6523;49.758;6.120;2023-07-22T05:12:13;10.40;99.90
12911;DHT22;6523;49.758;6.120;2023-07-22T05:14:39;10.60;99.90
12911;DHT22;6523;49.758;6.120;2023-07-22T05:17:05;10.60;99.90
12911;DHT22;6523;49.758;6.120;2023-07-22T05:19:31;10.70;99.90
12911;DHT22;6523;49.758;6.120;2023-07-22T05:21:56;10.80;99.90
12911;DHT22;6523;49.758;6.120;2023-07-22T05:24:22;11.00;99.90
12911;DHT22;6523;49.758;6.120;2023-07-22T05:26:47;11.00;99.90
12911;DHT22;6523;49.758;6.120;2023-07-22T05:29:13;10.90;99.90
12911;DHT22;6523;49.758;6.120;2023-07-22T05:31:38;10.90;99.90
12911;DHT22;6523;49.758;6.120;2023-07-22T05:34:04;11.00;99.90
12911;DHT22;6523;49.758;6.120;2023-07-22T05:36:30;10.90;99.90
12911;DHT22;6523;49.758;6.120;2023-07-22T05:38:55;11.10;99.90
12911;DHT22;6523;49.758;6.120;2023-07-22T05:41:21;11.20;99.90
12911;DHT22;6523;49.758;6.120;2023-07-22T05:43:47;11.40;99.90
12911;DHT22;6523;49.758;6.120;2023-07-22T05:46:12;11.60;99.90
12911;DHT22;6523;49.758;6.120;2023-07-22T05:48:38;11.40;99.90
12911;DHT22;6523;49.758;6.120;2023-07-22T05:51:04;11.30;99.90
12911;DHT22;6523;49.758;6.120;2023-07-22T05:53:30;11.40;99.90
12911;DHT22;6523;49.758;6.120;2023-07-22T05:55:56;11.60;99.90
12911;DHT22;6523;49.758;6.120;2023-07-22T05:58:21;11.80;99.90
12911;DHT22;6523;49.758;6.120;2023-07-22T06:00:47;11.80;99.90
12911;DHT22;6523;49.758;6.120;2023-07-22T06:03:13;11.80;99.90
12911;DHT22;6523;49.758;6.120;2023-07-22T06:05:38;11.90;99.90
12911;DHT22;6523;49.758;6.120;2023-07-22T06:08:04;12.10;99.90
12911;DHT22;6523;49.758;6.120;2023-07-22T06:10:31;12.20;99.90
12911;DHT22;6523;49.758;6.120;2023-07-22T06:12:57;12.20;99.90
12911;DHT22;6523;49.758;6.120;2023-07-22T06:15:22;12.20;99.90
12911;DHT22;6523;49.758;6.120;2023-07-22T06:17:48;12.30;99.90
12911;DHT22;6523;49.758;6.120;2023-07-22T06:20:14;12.20;99.90
12911;DHT22;6523;49.758;6.120;2023-07-22T06:22:39;12.20;99.90
12911;DHT22;6523;49.758;6.120;2023-07-22T06:25:06;12.20;99.90
12911;DHT22;6523;49.758;6.120;2023-07-22T06:27:32;12.30;99.90
12911;DHT22;6523;49.758;6.120;2023-07-22T06:29:57;12.50;99.90
12911;DHT22;6523;49.758;6.120;2023-07-22T06:32:23;12.50;99.90
12911;DHT22;6523;49.758;6.120;2023-07-22T06:34:49;12.70;99.90
12911;DHT22;6523;49.758;6.120;2023-07-22T06:37:14;13.10;99.90
12911;DHT22;6523;49.758;6.120;2023-07-22T06:39:40;13.40;99.90
12911;DHT22;6523;49.758;6.120;2023-07-22T06:42:05;13.50;99.90
12911;DHT22;6523;49.758;6.120;2023-07-22T06:44:31;13.50;99.90
12911;DHT22;6523;49.758;6.120;2023-07-22T06:46:57;13.50;99.90
12911;DHT22;6523;49.758;6.120;2023-07-22T06:49:22;13.60;99.90
12911;DHT22;6523;49.758;6.120;2023-07-22T06:51:48;13.80;99.90
12911;DHT22;6523;49.758;6.120;2023-07-22T06:54:13;13.90;99.90
12911;DHT22;6523;49.758;6.120;2023-07-22T06:56:39;14.00;99.90
12911;DHT22;6523;49.758;6.120;2023-07-22T06:59:04;14.20;99.90
12911;DHT22;6523;49.758;6.120;2023-07-22T07:01:30;14.50;99.90
12911;DHT22;6523;49.758;6.120;2023-07-22T07:03:55;14.50;99.90
12911;DHT22;6523;49.758;6.120;2023-07-22T07:06:21;14.50;99.90
12911;DHT22;6523;49.758;6.120;2023-07-22T07:08:46;14.40;99.90
12911;DHT22;6523;49.758;6.120;2023-07-22T07:11:14;14.50;99.90
12911;DHT22;6523;49.758;6.120;2023-07-22T07:13:40;14.80;99.90
12911;DHT22;6523;49.758;6.120;2023-07-22T07:16:26;15.00;99.90
12911;DHT22;6523;49.758;6.120;2023-07-22T07:18:52;15.20;99.90
12911;DHT22;6523;49.758;6.120;2023-07-22T07:21:21;15.10;99.90
12911;DHT22;6523;49.758;6.120;2023-07-22T07:23:51;15.30;99.90
12911;DHT22;6523;49.758;6.120;2023-07-22T07:26:17;15.80;99.90
12911;DHT22;6523;49.758;6.120;2023-07-22T07:28:42;16.00;99.90
12911;DHT22;6523;49.758;6.120;2023-07-22T07:31:08;16.30;99.90
12911;DHT22;6523;49.758;6.120;2023-07-22T07:33:34;16.10;99.90
12911;DHT22;6523;49.758;6.120;2023-07-22T07:36:00;16.00;99.90
12911;DHT22;6523;49.758;6.120;2023-07-22T07:38:25;15.80;99.90
12911;DHT22;6523;49.758;6.120;2023-07-22T07:40:56;16.00;99.90
12911;DHT22;6523;49.758;6.120;2023-07-22T07:43:22;16.20;99.90
12911;DHT22;6523;49.758;6.120;2023-07-22T07:45:47;16.30;99.90
12911;DHT22;6523;49.758;6.120;2023-07-22T07:48:13;16.80;99.90
12911;DHT22;6523;49.758;6.120;2023-07-22T07:50:38;17.00;99.90
12911;DHT22;6523;49.758;6.120;2023-07-22T07:53:04;17.30;99.90
12911;DHT22;6523;49.758;6.120;2023-07-22T07:55:29;17.30;99.90
12911;DHT22;6523;49.758;6.120;2023-07-22T07:57:55;17.60;99.90
12911;DHT22;6523;49.758;6.120;2023-07-22T08:00:21;18.00;99.90
12911;DHT22;6523;49.758;6.120;2023-07-22T08:02:46;18.40;99.90
12911;DHT22;6523;49.758;6.120;2023-07-22T08:05:12;18.20;99.90
12911;DHT22;6523;49.758;6.120;2023-07-22T08:07:38;18.40;99.90
12911;DHT22;6523;49.758;6.120;2023-07-22T08:10:05;18.70;99.90
12911;DHT22;6523;49.758;6.120;2023-07-22T08:12:32;19.00;99.90
12911;DHT22;6523;49.758;6.120;2023-07-22T08:14:58;18.90;99.90
12911;DHT22;6523;49.758;6.120;2023-07-22T08:17:24;19.10;99.90
12911;DHT22;6523;49.758;6.120;2023-07-22T08:19:49;19.40;99.90
12911;DHT22;6523;49.758;6.120;2023-07-22T08:22:15;19.60;99.90
12911;DHT22;6523;49.758;6.120;2023-07-22T08:24:41;19.90;99.90
12911;DHT22;6523;49.758;6.120;2023-07-22T08:27:07;19.90;99.90
12911;DHT22;6523;49.758;6.120;2023-07-22T08:29:32;20.10;99.90
12911;DHT22;6523;49.758;6.120;2023-07-22T08:31:58;20.00;99.90
12911;DHT22;6523;49.758;6.120;2023-07-22T08:34:24;20.30;99.90
12911;DHT22;6523;49.758;6.120;2023-07-22T08:36:49;20.20;99.90
12911;DHT22;6523;49.758;6.120;2023-07-22T08:39:15;19.80;99.90
12911;DHT22;6523;49.758;6.120;2023-07-22T08:41:41;19.80;99.90
12911;DHT22;6523;49.758;6.120;2023-07-22T08:44:10;20.40;99.90
12911;DHT22;6523;49.758;6.120;2023-07-22T08:46:39;20.70;99.90
12911;DHT22;6523;49.758;6.120;2023-07-22T08:49:07;20.80;99.90
12911;DHT22;6523;49.758;6.120;2023-07-22T08:51:33;20.80;99.90
12911;DHT22;6523;49.758;6.120;2023-07-22T08:54:00;20.50;99.90
12911;DHT22;6523;49.758;6.120;2023-07-22T08:56:27;21.20;99.90
12911;DHT22;6523;49.758;6.120;2023-07-22T08:58:55;21.20;99.90
12911;DHT22;6523;49.758;6.120;2023-07-22T09:01:21;21.00;99.90
12911;DHT22;6523;49.758;6.120;2023-07-22T09:03:48;21.30;99.90
12911;DHT22;6523;49.758;6.120;2023-07-22T09:06:17;20.80;99.90
12911;DHT22;6523;49.758;6.120;2023-07-22T09:08:43;20.80;99.90
12911;DHT22;6523;49.758;6.120;2023-07-22T09:11:09;20.20;91.60
12911;DHT22;6523;49.758;6.120;2023-07-22T09:13:35;19.80;91.00
12911;DHT22;6523;49.758;6.120;2023-07-22T09:16:01;19.80;92.70
12911;DHT22;6523;49.758;6.120;2023-07-22T09:18:27;19.90;84.00
12911;DHT22;6523;49.758;6.120;2023-07-22T09:20:53;20.00;77.50
12911;DHT22;6523;49.758;6.120;2023-07-22T09:23:31;20.00;74.40
12911;DHT22;6523;49.758;6.120;2023-07-22T09:26:09;20.10;71.70
12911;DHT22;6523;49.758;6.120;2023-07-22T09:28:51;20.20;65.50
12911;DHT22;6523;49.758;6.120;2023-07-22T09:31:17;20.80;52.60
12911;DHT22;6523;49.758;6.120;2023-07-22T09:33:43;20.60;49.20
12911;DHT22;6523;49.758;6.120;2023-07-22T09:36:10;20.50;47.40
12911;DHT22;6523;49.758;6.120;2023-07-22T09:38:35;20.20;41.60
12911;DHT22;6523;49.758;6.120;2023-07-22T09:41:01;20.30;41.30
12911;DHT22;6523;49.758;6.120;2023-07-22T09:43:26;20.20;37.60
12911;DHT22;6523;49.758;6.120;2023-07-22T09:45:52;20.30;39.20
12911;DHT22;6523;49.758;6.120;2023-07-22T09:48:21;20.80;35.10
12911;DHT22;6523;49.758;6.120;2023-07-22T09:50:56;21.10;28.20
12911;DHT22;6523;49.758;6.120;2023-07-22T09:53:22;21.10;23.00
12911;DHT22;6523;49.758;6.120;2023-07-22T09:55:48;21.00;24.60
12911;DHT22;6523;49.758;6.120;2023-07-22T09:58:14;22.10;27.90
12911;DHT22;6523;49.758;6.120;2023-07-22T10:00:45;22.00;15.30
12911;DHT22;6523;49.758;6.120;2023-07-22T10:03:12;22.20;13.10
12911;DHT22;6523;49.758;6.120;2023-07-22T10:05:42;22.30;17.90
12911;DHT22;6523;49.758;6.120;2023-07-22T10:08:08;21.20;17.20
12911;DHT22;6523;49.758;6.120;2023-07-22T10:10:38;21.60;17.00
12911;DHT22;6523;49.758;6.120;2023-07-22T10:13:05;22.00;11.50
12911;DHT22;6523;49.758;6.120;2023-07-22T10:15:32;21.70;7.10
12911;DHT22;6523;49.758;6.120;2023-07-22T10:18:02;21.60;11.20
12911;DHT22;6523;49.758;6.120;2023-07-22T10:20:29;21.70;11.20
12911;DHT22;6523;49.758;6.120;2023-07-22T10:22:55;21.60;13.80
12911;DHT22;6523;49.758;6.120;2023-07-22T10:25:22;22.10;6.70
12911;DHT22;6523;49.758;6.120;2023-07-22T10:27:49;21.70;7.80
12911;DHT22;6523;49.758;6.120;2023-07-22T10:30:17;21.30;9.60
12911;DHT22;6523;49.758;6.120;2023-07-22T10:32:48;21.60;9.70
12911;DHT22;6523;49.758;6.120;2023-07-22T10:35:34;21.50;7.40
12911;DHT22;6523;49.758;6.120;2023-07-22T10:38:12;21.20;10.60
12911;DHT22;6523;49.758;6.120;2023-07-22T10:40:52;21.10;12.90
12911;DHT22;6523;49.758;6.120;2023-07-22T10:43:33;20.70;13.30
12911;DHT22;6523;49.758;6.120;2023-07-22T10:46:06;20.80;14.00
12911;DHT22;6523;49.758;6.120;2023-07-22T10:48:38;20.90;14.80
12911;DHT22;6523;49.758;6.120;2023-07-22T10:51:09;20.90;15.00
12911;DHT22;6523;49.758;6.120;2023-07-22T10:53:41;21.20;11.00
12911;DHT22;6523;49.758;6.120;2023-07-22T10:56:21;21.00;13.10
12911;DHT22;6523;49.758;6.120;2023-07-22T11:04:25;21.50;9.10
12911;DHT22;6523;49.758;6.120;2023-07-22T11:07:03;21.60;7.20
12911;DHT22;6523;49.758;6.120;2023-07-22T11:12:14;21.70;6.40
12911;DHT22;6523;49.758;6.120;2023-07-22T11:14:46;22.20;2.50
12911;DHT22;6523;49.758;6.120;2023-07-22T11:17:13;22.00;2.00
12911;DHT22;6523;49.758;6.120;2023-07-22T11:19:38;21.90;3.50
12911;DHT22;6523;49.758;6.120;2023-07-22T11:22:05;22.10;3.60
12911;DHT22;6523;49.758;6.120;2023-07-22T11:24:32;21.50;3.90
12911;DHT22;6523;49.758;6.120;2023-07-22T11:26:59;22.10;11.10
12911;DHT22;6523;49.758;6.120;2023-07-22T11:29:24;21.90;1.30
12911;DHT22;6523;49.758;6.120;2023-07-22T11:31:51;21.50;3.90
12911;DHT22;6523;49.758;6.120;2023-07-22T11:34:18;21.80;4.80
12911;DHT22;6523;49.758;6.120;2023-07-22T11:36:45;21.80;9.80
12911;DHT22;6523;49.758;6.120;2023-07-22T11:39:13;21.90;5.20
12911;DHT22;6523;49.758;6.120;2023-07-22T11:41:39;22.00;1.00
12911;DHT22;6523;49.758;6.120;2023-07-22T11:44:10;21.70;5.60
12911;DHT22;6523;49.758;6.120;2023-07-22T11:46:54;21.80;4.80
12911;DHT22;6523;49.758;6.120;2023-07-22T11:49:27;21.30;4.50
12911;DHT22;6523;49.758;6.120;2023-07-22T11:52:03;21.30;6.00
12911;DHT22;6523;49.758;6.120;2023-07-22T11:54:31;22.00;8.10
12911;DHT22;6523;49.758;6.120;2023-07-22T11:57:16;21.80;5.40
12911;DHT22;6523;49.758;6.120;2023-07-22T11:59:50;22.10;5.00
12911;DHT22;6523;49.758;6.120;2023-07-22T12:02:20;22.20;5.30
12911;DHT22;6523;49.758;6.120;2023-07-22T12:05:03;22.00;2.30
12911;DHT22;6523;49.758;6.120;2023-07-22T12:07:32;21.70;2.10
12911;DHT22;6523;49.758;6.120;2023-07-22T12:10:00;22.20;1.00
12911;DHT22;6523;49.758;6.120;2023-07-22T12:12:39;22.40;1.00
12911;DHT22;6523;49.758;6.120;2023-07-22T12:15:16;22.80;1.00
12911;DHT22;6523;49.758;6.120;2023-07-22T12:20:17;22.90;1.00
12911;DHT22;6523;49.758;6.120;2023-07-22T12:22:43;22.70;1.00
12911;DHT22;6523;49.758;6.120;2023-07-22T12:25:09;22.40;1.00
12911;DHT22;6523;49.758;6.120;2023-07-22T12:27:36;22.80;1.00
12911;DHT22;6523;49.758;6.120;2023-07-22T12:30:01;23.00;1.00
12911;DHT22;6523;49.758;6.120;2023-07-22T12:32:28;23.20;1.00
12911;DHT22;6523;49.758;6.120;2023-07-22T12:34:53;23.60;1.00
12911;DHT22;6523;49.758;6.120;2023-07-22T12:37:19;23.70;1.00
12911;DHT22;6523;49.758;6.120;2023-07-22T12:39:45;24.00;1.00
12911;DHT22;6523;49.758;6.120;2023-07-22T12:42:11;23.80;1.00
12911;DHT22;6523;49.758;6.120;2023-07-22T12:44:36;24.20;1.00
12911;DHT22;6523;49.758;6.120;2023-07-22T12:47:02;23.90;1.00
12911;DHT22;6523;49.758;6.120;2023-07-22T12:49:27;23.70;1.00
12911;DHT22;6523;49.758;6.120;2023-07-22T12:51:53;23.10;1.00
12911;DHT22;6523;49.758;6.120;2023-07-22T12:54:18;23.00;1.00
12911;DHT22;6523;49.758;6.120;2023-07-22T12:56:44;22.70;1.00
12911;DHT22;6523;49.758;6.120;2023-07-22T12:59:10;22.90;1.00
12911;DHT22;6523;49.758;6.120;2023-07-22T13:01:36;23.10;1.00
12911;DHT22;6523;49.758;6.120;2023-07-22T13:04:06;23.20;1.00
12911;DHT22;6523;49.758;6.120;2023-07-22T13:06:32;23.60;1.00
12911;DHT22;6523;49.758;6.120;2023-07-22T13:08:57;23.60;1.00
12911;DHT22;6523;49.758;6.120;2023-07-22T13:11:23;24.20;1.00
12911;DHT22;6523;49.758;6.120;2023-07-22T13:13:48;23.20;1.00
12911;DHT22;6523;49.758;6.120;2023-07-22T13:16:14;23.20;1.00
12911;DHT22;6523;49.758;6.120;2023-07-22T13:18:39;24.30;1.00
12911;DHT22;6523;49.758;6.120;2023-07-22T13:21:05;23.60;1.00
12911;DHT22;6523;49.758;6.120;2023-07-22T13:23:30;23.50;1.00
12911;DHT22;6523;49.758;6.120;2023-07-22T13:25:56;24.60;1.00
12911;DHT22;6523;49.758;6.120;2023-07-22T13:28:21;24.50;1.00
12911;DHT22;6523;49.758;6.120;2023-07-22T13:30:47;25.00;1.00
12911;DHT22;6523;49.758;6.120;2023-07-22T13:33:13;24.50;1.00
12911;DHT22;6523;49.758;6.120;2023-07-22T13:35:38;23.80;1.00
12911;DHT22;6523;49.758;6.120;2023-07-22T13:38:04;24.10;1.00
12911;DHT22;6523;49.758;6.120;2023-07-22T13:40:29;24.10;1.00
12911;DHT22;6523;49.758;6.120;2023-07-22T13:42:55;23.90;1.00
12911;DHT22;6523;49.758;6.120;2023-07-22T13:45:21;24.00;1.00
12911;DHT22;6523;49.758;6.120;2023-07-22T13:47:47;23.80;1.00
12911;DHT22;6523;49.758;6.120;2023-07-22T13:50:12;24.00;1.00
12911;DHT22;6523;49.758;6.120;2023-07-22T13:52:38;23.50;1.00
12911;DHT22;6523;49.758;6.120;2023-07-22T13:55:04;23.90;1.00
12911;DHT22;6523;49.758;6.120;2023-07-22T13:57:29;23.60;1.00
12911;DHT22;6523;49.758;6.120;2023-07-22T13:59:55;23.80;1.00
12911;DHT22;6523;49.758;6.120;2023-07-22T14:02:20;24.60;1.00
12911;DHT22;6523;49.758;6.120;2023-07-22T14:04:46;25.20;1.00
12911;DHT22;6523;49.758;6.120;2023-07-22T14:07:12;24.50;1.00
12911;DHT22;6523;49.758;6.120;2023-07-22T14:09:38;24.50;1.00
12911;DHT22;6523;49.758;6.120;2023-07-22T14:12:03;24.50;1.00
12911;DHT22;6523;49.758;6.120;2023-07-22T14:14:29;24.20;1.00
12911;DHT22;6523;49.758;6.120;2023-07-22T14:16:55;24.30;1.00
12911;DHT22;6523;49.758;6.120;2023-07-22T14:19:21;24.20;1.00
12911;DHT22;6523;49.758;6.120;2023-07-22T14:21:47;24.20;1.00
12911;DHT22;6523;49.758;6.120;2023-07-22T14:24:12;25.40;1.00
12911;DHT22;6523;49.758;6.120;2023-07-22T14:26:38;25.00;1.00
12911;DHT22;6523;49.758;6.120;2023-07-22T14:29:03;25.40;1.00
12911;DHT22;6523;49.758;6.120;2023-07-22T14:31:29;26.40;1.00
12911;DHT22;6523;49.758;6.120;2023-07-22T14:33:54;26.70;1.00
12911;DHT22;6523;49.758;6.120;2023-07-22T14:36:20;26.30;1.00
12911;DHT22;6523;49.758;6.120;2023-07-22T14:38:46;26.10;1.00
12911;DHT22;6523;49.758;6.120;2023-07-22T14:41:12;24.90;1.00
12911;DHT22;6523;49.758;6.120;2023-07-22T14:43:38;25.10;1.00
12911;DHT22;6523;49.758;6.120;2023-07-22T14:46:03;24.60;1.00
12911;DHT22;6523;49.758;6.120;2023-07-22T14:48:29;24.80;1.00
12911;DHT22;6523;49.758;6.120;2023-07-22T14:50:55;24.70;1.00
12911;DHT22;6523;49.758;6.120;2023-07-22T14:53:20;25.10;1.00
12911;DHT22;6523;49.758;6.120;2023-07-22T14:55:46;25.10;1.00
12911;DHT22;6523;49.758;6.120;2023-07-22T14:58:12;25.30;1.00
12911;DHT22;6523;49.758;6.120;2023-07-22T15:00:38;24.40;1.00
12911;DHT22;6523;49.758;6.120;2023-07-22T15:03:03;24.80;1.00
12911;DHT22;6523;49.758;6.120;2023-07-22T15:05:29;24.60;1.00
12911;DHT22;6523;49.758;6.120;2023-07-22T15:07:55;24.50;1.00
12911;DHT22;6523;49.758;6.120;2023-07-22T15:10:20;23.60;1.00
12911;DHT22;6523;49.758;6.120;2023-07-22T15:12:46;23.50;1.00
12911;DHT22;6523;49.758;6.120;2023-07-22T15:15:13;24.10;1.00
12911;DHT22;6523;49.758;6.120;2023-07-22T15:17:38;23.50;1.00
12911;DHT22;6523;49.758;6.120;2023-07-22T15:20:05;23.30;1.00
12911;DHT22;6523;49.758;6.120;2023-07-22T15:22:30;23.90;1.00
12911;DHT22;6523;49.758;6.120;2023-07-22T15:24:56;24.40;1.00
12911;DHT22;6523;49.758;6.120;2023-07-22T15:27:21;24.50;1.00
12911;DHT22;6523;49.758;6.120;2023-07-22T15:29:47;24.60;1.00
12911;DHT22;6523;49.758;6.120;2023-07-22T15:32:12;24.20;1.00
12911;DHT22;6523;49.758;6.120;2023-07-22T15:34:38;24.90;1.00
12911;DHT22;6523;49.758;6.120;2023-07-22T15:37:04;24.50;1.00
12911;DHT22;6523;49.758;6.120;2023-07-22T15:39:30;24.30;1.00
12911;DHT22;6523;49.758;6.120;2023-07-22T15:41:55;24.90;1.00
12911;DHT22;6523;49.758;6.120;2023-07-22T15:44:21;25.00;1.00
12911;DHT22;6523;49.758;6.120;2023-07-22T15:46:53;24.70;1.00
12911;DHT22;6523;49.758;6.120;2023-07-22T15:49:18;25.30;1.00
12911;DHT22;6523;49.758;6.120;2023-07-22T15:51:44;26.00;1.00
12911;DHT22;6523;49.758;6.120;2023-07-22T15:54:09;25.60;1.00
12911;DHT22;6523;49.758;6.120;2023-07-22T15:56:35;24.70;1.00
12911;DHT22;6523;49.758;6.120;2023-07-22T15:59:02;23.60;1.00